Time;durP1;ratioP1;P1;durP2;ratioP2;P2;SDS_P1;SDS_P2;PMS_P1;PMS_P2;Temp;Humidity;BMP_temperature;BMP_pressure;BME280_temperature;BME280_humidity;BME280_pressure;Samples;Min_cycle;Max_cycle;Signal;HPM_P1;HPM_P2
2022/02/14 00:00:12;;;;;;;18.30;4.55;;;;;;;8.99;73.48;99849.34;5053643;28;20037;-75
2022/02/14 00:02:38;;;;;;;8.30;4.30;;;;;;;9.10;72.60;99846.44;5051757;28;20132;-75
2022/02/14 00:05:04;;;;;;;12.90;4.55;;;;;;;9.23;71.78;99847.91;5053643;28;20060;-75
2022/02/14 00:07:30;;;;;;;10.50;4.40;;;;;;;9.37;70.63;99839.34;5053489;28;20103;-75
2022/02/14 00:09:56;;;;;;;10.93;4.30;;;;;;;9.36;70.45;99840.34;5053320;28;20037;-75
2022/02/14 00:12:21;;;;;;;9.45;4.35;;;;;;;9.38;70.75;99830.41;5053727;28;20021;-75
2022/02/14 00:14:47;;;;;;;14.15;5.15;;;;;;;9.40;70.73;99835.56;5052778;28;20044;-77
2022/02/14 00:17:12;;;;;;;14.25;4.53;;;;;;;9.55;69.25;99826.00;5053586;28;20036;-75
2022/02/14 00:19:38;;;;;;;11.48;4.60;;;;;;;9.54;69.58;99824.38;5052801;28;20032;-76
2022/02/14 00:22:03;;;;;;;17.27;4.90;;;;;;;9.57;69.35;99820.53;5052673;28;20445;-76
2022/02/14 00:24:29;;;;;;;14.95;4.30;;;;;;;9.63;69.28;99817.25;5053454;28;20032;-75
2022/02/14 00:26:54;;;;;;;10.65;4.53;;;;;;;9.65;69.33;99815.28;5052855;28;20024;-75
2022/02/14 00:29:21;;;;;;;10.32;4.57;;;;;;;9.60;69.78;99815.78;5053215;28;20473;-75
2022/02/14 00:31:47;;;;;;;14.93;5.13;;;;;;;9.61;69.51;99811.28;5052681;28;20037;-76
2022/02/14 00:34:12;;;;;;;17.02;4.55;;;;;;;9.59;69.79;99807.97;5053833;28;20107;-76
2022/02/14 00:36:39;;;;;;;10.63;3.97;;;;;;;9.60;69.75;99805.16;5052346;28;20029;-76
2022/02/14 00:39:04;;;;;;;12.77;4.70;;;;;;;9.75;68.56;99788.59;5052747;28;20389;-75
2022/02/14 00:41:30;;;;;;;13.32;4.13;;;;;;;9.69;69.53;99800.72;5051634;28;20032;-74
2022/02/14 00:43:55;;;;;;;11.77;3.97;;;;;;;9.73;69.10;99790.59;5052312;28;20045;-75
2022/02/14 00:46:20;;;;;;;10.30;4.72;;;;;;;9.74;69.36;99790.44;5052819;28;20516;-76
2022/02/14 00:48:46;;;;;;;10.40;4.45;;;;;;;9.74;69.48;99773.66;5052403;28;20032;-75
2022/02/14 00:51:11;;;;;;;18.02;4.97;;;;;;;9.74;69.01;99773.66;5051267;28;20039;-75
2022/02/14 00:53:36;;;;;;;11.75;4.28;;;;;;;9.71;69.41;99762.34;5052813;28;20033;-76
2022/02/14 00:56:02;;;;;;;11.68;4.38;;;;;;;9.84;67.99;99771.72;5052608;28;20075;-75
2022/02/14 00:58:27;;;;;;;13.98;4.68;;;;;;;9.78;68.81;99761.72;5052777;28;20043;-75
2022/02/14 01:00:54;;;;;;;9.68;5.05;;;;;;;9.70;69.31;99755.41;5051803;28;20033;-76
2022/02/14 01:03:19;;;;;;;12.25;4.53;;;;;;;9.66;69.40;99751.38;5052574;28;20029;-76
2022/02/14 01:05:45;;;;;;;13.02;5.10;;;;;;;9.67;69.11;99746.91;5051844;28;20112;-76
2022/02/14 01:08:10;;;;;;;14.50;4.60;;;;;;;9.69;68.55;99748.41;5052474;28;20362;-75
2022/02/14 01:10:36;;;;;;;17.30;4.65;;;;;;;9.75;68.72;99741.63;5034823;28;20452;-75
2022/02/14 01:13:02;;;;;;;14.00;4.90;;;;;;;9.76;68.90;99731.81;5052125;28;20037;-75
2022/02/14 01:15:27;;;;;;;20.30;4.88;;;;;;;9.73;68.81;99726.84;5052300;28;20029;-75
2022/02/14 01:17:53;;;;;;;9.73;4.35;;;;;;;9.70;68.89;99720.00;5051571;28;20166;-74
2022/02/14 01:20:18;;;;;;;11.93;4.80;;;;;;;9.70;68.51;99720.88;5052127;28;20469;-75
2022/02/14 01:22:44;;;;;;;13.13;4.60;;;;;;;9.63;69.15;99705.72;5051433;28;20037;-75
2022/02/14 01:25:10;;;;;;;13.45;5.70;;;;;;;9.68;68.29;99708.72;5052530;28;20098;-74
2022/02/14 01:27:36;;;;;;;13.43;4.70;;;;;;;9.70;68.45;99691.66;5051989;28;20033;-74
2022/02/14 01:30:02;;;;;;;13.40;4.55;;;;;;;9.66;68.67;99690.31;5050510;28;20043;-74
2022/02/14 01:32:28;;;;;;;8.25;4.25;;;;;;;9.67;68.58;99696.44;5051831;28;20108;-75
2022/02/14 01:34:54;;;;;;;11.98;4.85;;;;;;;9.70;68.15;99683.69;5050803;28;20083;-75
2022/02/14 01:37:20;;;;;;;10.10;4.32;;;;;;;9.76;67.89;99668.06;5051716;28;20114;-75
2022/02/14 01:39:46;;;;;;;13.20;4.25;;;;;;;9.75;68.31;99675.22;5049574;28;20072;-75
2022/02/14 01:42:12;;;;;;;8.63;4.22;;;;;;;9.73;68.35;99679.84;5050643;28;20125;-75
2022/02/14 01:44:52;;;;;;;11.40;4.85;;;;;;;9.72;68.21;99662.28;5051992;28;20123;-75
2022/02/14 01:47:23;;;;;;;13.43;4.30;;;;;;;9.71;68.43;99672.03;5051762;28;20126;-76
2022/02/14 01:49:49;;;;;;;8.40;4.00;;;;;;;9.75;68.38;99651.31;5051060;28;20033;-76
2022/02/14 01:52:15;;;;;;;10.15;4.45;;;;;;;9.82;67.96;99656.78;5051598;28;20029;-75
2022/02/14 01:54:44;;;;;;;13.32;4.20;;;;;;;9.80;68.31;99640.19;5051893;28;20553;-75
2022/02/14 01:57:11;;;;;;;14.43;3.88;;;;;;;9.85;68.09;99648.50;5051347;28;20025;-74
2022/02/14 01:59:37;;;;;;;7.30;3.40;;;;;;;9.84;68.11;99645.03;5051412;28;20074;-74
2022/02/14 02:02:05;;;;;;;11.82;4.15;;;;;;;9.86;67.95;99632.41;5051108;28;20029;-75
2022/02/14 02:04:30;;;;;;;18.52;3.83;;;;;;;9.90;67.71;99624.94;5051750;28;20111;-75
2022/02/14 02:06:56;;;;;;;10.93;3.60;;;;;;;9.85;68.21;99633.41;5051228;28;20480;-74
2022/02/14 02:09:22;;;;;;;9.27;4.22;;;;;;;9.81;68.11;99621.44;5051228;28;20037;-74
2022/02/14 02:14:32;;;;;;;8.93;3.10;;;;;;;9.86;67.90;99621.75;5051716;28;20056;-75
2022/02/14 02:16:57;;;;;;;16.55;3.72;;;;;;;9.98;67.33;99618.81;5050933;28;20028;-75
2022/02/14 02:19:23;;;;;;;13.20;3.90;;;;;;;9.96;67.86;99616.31;5049954;28;20055;-75
2022/02/14 02:21:49;;;;;;;11.55;3.65;;;;;;;10.00;67.33;99606.16;5050925;28;20345;-76
2022/02/14 02:24:19;;;;;;;9.02;3.42;;;;;;;9.98;67.79;99600.19;5051280;28;20533;-76
2022/02/14 02:26:56;;;;;;;10.60;3.67;;;;;;;9.97;67.87;99604.69;5051431;28;20025;-76
2022/02/14 02:29:22;;;;;;;11.07;3.00;;;;;;;10.01;67.26;99600.69;5051009;28;20033;-74
2022/02/14 02:31:48;;;;;;;11.45;3.17;;;;;;;10.04;67.34;99581.75;5051723;28;20040;-75
2022/02/14 02:34:13;;;;;;;15.57;3.45;;;;;;;10.02;67.33;99590.91;5050796;28;20033;-74
2022/02/14 02:36:50;;;;;;;10.45;3.25;;;;;;;10.00;67.63;99584.91;5050220;28;20061;-75
2022/02/14 02:39:16;;;;;;;11.68;3.33;;;;;;;10.08;66.79;99598.22;5049604;28;20484;-75
2022/02/14 02:41:42;;;;;;;8.68;3.08;;;;;;;10.07;67.09;99581.41;5051061;28;20120;-75
2022/02/14 02:44:08;;;;;;;7.38;2.90;;;;;;;10.12;66.66;99578.28;5050483;28;20029;-75
2022/02/14 02:46:33;;;;;;;9.27;2.80;;;;;;;10.05;67.01;99572.78;5055481;28;20025;-74
2022/02/14 02:49:11;;;;;;;6.78;3.40;;;;;;;10.11;66.84;99586.44;5054811;28;20445;-75
2022/02/14 02:51:38;;;;;;;8.98;3.15;;;;;;;10.13;66.68;99576.44;5055241;28;20040;-74
2022/02/14 02:54:04;;;;;;;7.75;2.88;;;;;;;10.15;66.56;99577.94;5054460;28;20104;-74
2022/02/14 02:56:30;;;;;;;10.65;3.25;;;;;;;10.13;66.58;99561.31;5053676;28;20171;-74
2022/02/14 02:58:55;;;;;;;14.30;3.88;;;;;;;10.11;66.91;99565.97;5054084;28;20125;-74
2022/02/14 03:01:21;;;;;;;14.95;2.80;;;;;;;10.17;66.38;99569.81;5054557;28;20029;-74
2022/02/14 03:03:47;;;;;;;10.27;3.00;;;;;;;10.17;66.69;99556.53;5054760;28;20032;-75
2022/02/14 03:06:13;;;;;;;11.63;3.10;;;;;;;10.13;66.51;99539.25;5054214;28;20029;-75
2022/02/14 03:08:38;;;;;;;7.93;2.95;;;;;;;10.14;66.55;99547.03;5054938;28;20036;-75
2022/02/14 03:11:03;;;;;;;11.15;3.50;;;;;;;10.17;66.35;99551.19;5054053;28;20531;-75
2022/02/14 03:13:29;;;;;;;8.65;3.20;;;;;;;10.16;66.51;99533.59;5054430;28;20068;-75
2022/02/14 03:15:54;;;;;;;7.93;3.17;;;;;;;10.11;66.57;99533.28;5054752;28;20033;-75
2022/02/14 03:18:19;;;;;;;7.38;3.10;;;;;;;10.09;66.79;99544.06;5054366;28;20052;-75
2022/02/14 03:20:45;;;;;;;12.05;3.10;;;;;;;10.14;66.37;99531.09;5054542;28;20063;-75
2022/02/14 03:23:10;;;;;;;10.15;3.17;;;;;;;10.16;66.48;99525.63;5053826;28;20090;-75
2022/02/14 03:25:35;;;;;;;9.50;2.90;;;;;;;10.17;65.98;99537.91;5053054;28;20043;-75
2022/02/14 03:28:01;;;;;;;8.32;2.83;;;;;;;10.20;65.86;99538.41;5053587;28;20420;-75
2022/02/14 03:30:26;;;;;;;12.00;2.90;;;;;;;10.16;66.34;99530.94;5054615;28;20037;-74
2022/02/14 03:32:52;;;;;;;8.88;2.83;;;;;;;10.14;66.32;99525.78;5054243;28;20029;-74
2022/02/14 03:35:17;;;;;;;4.78;2.90;;;;;;;10.11;66.41;99515.50;5052345;28;20129;-75
2022/02/14 03:37:42;;;;;;;8.65;2.60;;;;;;;10.17;65.89;99524.63;5054079;28;20051;-75
2022/02/14 03:40:08;;;;;;;8.65;3.15;;;;;;;10.14;66.10;99515.16;5053357;28;20073;-75
2022/02/14 03:42:34;;;;;;;8.82;3.55;;;;;;;10.06;66.54;99525.78;5053869;28;20036;-75
2022/02/14 03:44:59;;;;;;;7.80;2.80;;;;;;;10.07;66.29;99520.28;5053546;28;20116;-75
2022/02/14 03:47:25;;;;;;;7.15;3.38;;;;;;;10.07;66.34;99519.47;5053709;28;20385;-75
2022/02/14 03:49:50;;;;;;;9.02;2.67;;;;;;;10.06;66.29;99516.00;5053946;28;20039;-75
2022/02/14 03:52:15;;;;;;;6.90;2.45;;;;;;;10.10;66.18;99553.69;5053017;28;20119;-75
2022/02/14 03:54:41;;;;;;;7.05;3.20;;;;;;;10.06;66.58;99518.66;5053726;28;20160;-75
2022/02/14 03:57:06;;;;;;;12.70;2.65;;;;;;;10.03;66.69;99515.47;5052197;28;20048;-75
2022/02/14 03:59:32;;;;;;;7.78;2.50;;;;;;;10.10;66.32;99521.78;5053665;28;20040;-76
2022/02/14 04:01:57;;;;;;;7.57;2.58;;;;;;;10.06;66.66;99491.22;5054093;28;20037;-75
2022/02/14 04:04:22;;;;;;;11.07;2.78;;;;;;;9.99;67.27;99498.25;5053003;28;20075;-75
2022/02/14 04:06:48;;;;;;;8.55;2.88;;;;;;;9.93;67.63;99481.13;5053672;28;20554;-74
2022/02/14 04:09:13;;;;;;;11.00;2.65;;;;;;;9.90;67.83;99497.41;5052957;28;20037;-74
2022/02/14 04:11:38;;;;;;;9.05;2.70;;;;;;;9.87;67.87;99487.94;5053450;28;20039;-75
2022/02/14 04:14:04;;;;;;;8.70;2.97;;;;;;;9.78;68.36;99494.25;5052758;28;20037;-75
2022/02/14 04:16:29;;;;;;;7.47;2.80;;;;;;;9.77;68.38;99495.25;5053568;28;20044;-75
2022/02/14 04:18:55;;;;;;;9.32;2.42;;;;;;;9.77;68.48;99478.50;5052299;28;20029;-75
2022/02/14 04:21:20;;;;;;;8.48;2.90;;;;;;;9.73;68.74;99488.59;5052776;28;20086;-75
2022/02/14 04:23:45;;;;;;;14.48;2.67;;;;;;;9.75;68.37;99502.56;5053312;28;20029;-75
2022/02/14 04:26:11;;;;;;;7.10;2.67;;;;;;;9.75;68.46;99486.63;5052695;28;20087;-75
2022/02/14 04:28:36;;;;;;;6.30;2.40;;;;;;;9.73;68.83;99503.72;5053229;28;20029;-75
2022/02/14 04:31:01;;;;;;;8.60;2.75;;;;;;;9.72;68.80;99492.28;5053251;28;20063;-75
2022/02/14 04:33:27;;;;;;;5.50;2.58;;;;;;;9.70;68.75;99480.97;5052593;28;20089;-75
2022/02/14 04:35:52;;;;;;;9.15;2.78;;;;;;;9.66;69.21;99484.97;5053150;28;20068;-75
2022/02/14 04:38:18;;;;;;;9.75;3.50;;;;;;;9.69;68.91;99500.59;5052682;28;20436;-75
2022/02/14 04:40:43;;;;;;;4.55;2.55;;;;;;;9.70;69.28;99520.81;5053080;28;20033;-75
2022/02/14 04:43:09;;;;;;;8.80;2.60;;;;;;;9.68;69.46;99518.31;5052347;28;20029;-76
2022/02/14 04:45:35;;;;;;;11.73;2.67;;;;;;;9.68;69.24;99485.63;5052621;28;20048;-74
2022/02/14 04:48:01;;;;;;;6.15;2.58;;;;;;;9.67;69.30;99490.13;5052950;28;20044;-74
2022/02/14 04:50:26;;;;;;;4.07;2.20;;;;;;;9.69;69.41;99512.03;5052690;28;20651;-74
2022/02/14 04:52:52;;;;;;;7.97;2.50;;;;;;;9.65;69.75;99507.22;5053063;28;20041;-75
2022/02/14 04:55:18;;;;;;;5.00;2.35;;;;;;;9.67;69.57;99505.22;5051935;28;20479;-74
2022/02/14 04:57:44;;;;;;;10.68;2.95;;;;;;;9.60;69.68;99494.44;5052577;28;20033;-74
2022/02/14 05:00:13;;;;;;;8.35;2.60;;;;;;;9.58;70.25;99500.91;5052011;28;20033;-75
2022/02/14 05:02:38;;;;;;;5.57;2.45;;;;;;;9.58;69.99;99493.75;5052578;28;20481;-74
2022/02/14 05:05:05;;;;;;;9.07;2.88;;;;;;;9.57;69.89;99502.72;5052169;28;20033;-75
2022/02/14 05:07:30;;;;;;;5.25;2.70;;;;;;;9.60;69.90;99489.13;5051675;28;20028;-74
2022/02/14 05:09:55;;;;;;;8.18;2.80;;;;;;;9.58;70.03;99507.03;5052568;28;20044;-74
2022/02/14 05:12:21;;;;;;;5.38;2.45;;;;;;;9.58;70.07;99517.66;5051762;28;20465;-75
2022/02/14 05:14:46;;;;;;;4.85;2.22;;;;;;;9.55;70.37;99495.91;5052186;28;20426;-74
2022/02/14 05:17:11;;;;;;;4.97;2.20;;;;;;;9.51;70.48;99503.41;5050588;28;20029;-75
2022/02/14 05:19:37;;;;;;;9.98;3.05;;;;;;;9.51;70.61;99506.06;5052226;28;20056;-74
2022/02/14 05:22:02;;;;;;;4.75;2.53;;;;;;;9.45;70.90;99525.25;5052275;28;20070;-75
2022/02/14 05:24:28;;;;;;;5.80;2.55;;;;;;;9.42;71.32;99507.00;5051518;28;20045;-74
2022/02/14 05:26:53;;;;;;;7.65;2.70;;;;;;;9.41;71.89;99529.25;5050983;28;20064;-75
2022/02/14 05:29:18;;;;;;;8.63;2.38;;;;;;;9.43;71.94;99528.09;5051240;28;20075;-74
2022/02/14 05:31:44;;;;;;;7.30;2.80;;;;;;;9.38;72.99;99530.41;5052165;28;20390;-74
2022/02/14 05:34:09;;;;;;;15.15;2.92;;;;;;;9.40;73.24;99536.38;5052347;28;20115;-74
2022/02/14 05:36:35;;;;;;;6.35;2.50;;;;;;;9.31;74.46;99537.38;5050012;28;20033;-74
2022/02/14 05:39:01;;;;;;;7.53;2.95;;;;;;;9.20;75.96;99530.53;5051777;28;20053;-74
2022/02/14 05:41:27;;;;;;;6.57;2.75;;;;;;;9.04;78.34;99541.94;5049859;28;20029;-74
2022/02/14 05:43:52;;;;;;;8.73;3.17;;;;;;;8.86;80.06;99549.16;5050598;28;20116;-74
2022/02/14 05:46:17;;;;;;;15.32;3.20;;;;;;;8.60;82.54;99558.81;5049658;28;20108;-75
2022/02/14 05:48:45;;;;;;;7.93;2.72;;;;;;;8.46;83.65;99565.56;5051905;28;20492;-74
2022/02/14 05:51:12;;;;;;;8.65;3.35;;;;;;;8.40;84.63;99570.59;5051778;28;20033;-74
2022/02/14 05:53:39;;;;;;;9.48;2.92;;;;;;;8.24;86.38;99585.41;5051135;28;20124;-74
2022/02/14 05:56:05;;;;;;;11.57;2.97;;;;;;;8.06;87.90;99584.59;5050321;28;20041;-74
2022/02/14 05:58:30;;;;;;;8.35;2.83;;;;;;;7.89;89.56;99584.44;5049211;28;20044;-74
2022/02/14 06:00:56;;;;;;;8.00;2.17;;;;;;;7.80;90.18;99592.50;5051029;28;20029;-74
2022/02/14 06:03:21;;;;;;;8.98;2.58;;;;;;;7.63;92.19;99599.44;5050540;28;20025;-76
2022/02/14 06:05:46;;;;;;;7.30;2.10;;;;;;;7.49;93.47;99601.59;5051565;28;20342;-74
2022/02/14 06:08:12;;;;;;;3.58;2.38;;;;;;;7.46;93.91;99603.72;5050949;28;20029;-74
2022/02/14 06:10:37;;;;;;;3.10;2.00;;;;;;;7.39;94.44;99614.09;5050375;28;20095;-74
2022/02/14 06:13:03;;;;;;;7.60;2.22;;;;;;;7.32;95.60;99603.25;5050733;28;20025;-74
2022/02/14 06:15:28;;;;;;;3.53;2.03;;;;;;;7.29;96.35;99616.78;5050047;28;20594;-74
2022/02/14 06:17:54;;;;;;;5.57;2.28;;;;;;;7.27;96.61;99617.91;5049441;28;20040;-74
2022/02/14 06:20:19;;;;;;;9.52;3.17;;;;;;;7.26;96.81;99625.03;5052246;28;20389;-75
2022/02/14 06:22:45;;;;;;;4.88;2.45;;;;;;;7.23;97.07;99622.66;5054952;28;20039;-74
2022/02/14 06:25:10;;;;;;;7.38;2.88;;;;;;;7.18;97.65;99631.06;5053377;28;20033;-73
2022/02/14 06:27:36;;;;;;;7.00;3.40;;;;;;;7.14;98.19;99636.78;5053745;28;20033;-74
2022/02/14 06:30:01;;;;;;;10.18;3.40;;;;;;;7.11;98.85;99643.19;5054574;28;20040;-73
2022/02/14 06:32:26;;;;;;;9.02;3.40;;;;;;;7.08;98.94;99648.78;5054225;28;20037;-74
2022/02/14 06:34:52;;;;;;;7.25;3.47;;;;;;;7.05;99.37;99655.19;5054667;28;20454;-74
2022/02/14 06:37:18;;;;;;;10.45;3.90;;;;;;;7.02;99.62;99654.66;5054509;28;20369;-74
2022/02/14 06:39:43;;;;;;;8.73;3.83;;;;;;;6.99;99.87;99673.44;5053682;28;20049;-74
2022/02/14 06:42:09;;;;;;;11.07;3.90;;;;;;;6.94;100.00;99673.88;5054452;28;20029;-74
2022/02/14 06:44:34;;;;;;;7.90;3.20;;;;;;;6.92;100.00;99675.81;5053753;28;20453;-73
2022/02/14 06:47:01;;;;;;;7.28;3.50;;;;;;;6.87;100.00;99683.38;5054507;28;20025;-74
2022/02/14 06:49:27;;;;;;;8.68;3.35;;;;;;;6.85;100.00;99694.09;5053607;28;20060;-73
2022/02/14 06:51:52;;;;;;;11.93;3.10;;;;;;;6.82;100.00;99698.81;5052821;28;20453;-73
2022/02/14 06:54:18;;;;;;;10.40;3.10;;;;;;;6.78;100.00;99708.03;5052829;28;20033;-73
2022/02/14 06:56:43;;;;;;;12.73;3.35;;;;;;;6.75;100.00;99706.50;5053870;28;20116;-73
2022/02/14 06:59:08;;;;;;;11.95;2.97;;;;;;;6.73;100.00;99708.44;5054184;28;20498;-73
2022/02/14 07:01:34;;;;;;;13.63;3.25;;;;;;;6.72;100.00;99717.34;5052231;28;20098;-74
2022/02/14 07:03:59;;;;;;;10.82;3.00;;;;;;;6.70;100.00;99722.78;5054279;28;20431;-73
2022/02/14 07:06:24;;;;;;;11.98;3.60;;;;;;;6.70;100.00;99724.56;5053954;28;20032;-76
2022/02/14 07:08:50;;;;;;;11.30;2.97;;;;;;;6.68;100.00;99719.44;5053809;28;20039;-74
2022/02/14 07:11:15;;;;;;;12.13;2.60;;;;;;;6.69;100.00;99722.91;5054003;28;20048;-73
2022/02/14 07:13:40;;;;;;;10.43;2.70;;;;;;;6.67;100.00;99722.22;5053696;28;20369;-74
2022/02/14 07:16:06;;;;;;;10.77;2.63;;;;;;;6.67;100.00;99735.44;5054524;28;20037;-73
2022/02/14 07:18:31;;;;;;;15.55;2.55;;;;;;;6.66;100.00;99733.78;5054042;28;20059;-73
2022/02/14 07:20:57;;;;;;;16.95;2.92;;;;;;;6.65;100.00;99732.09;5054486;28;20454;-74
2022/02/14 07:23:22;;;;;;;7.65;2.10;;;;;;;6.62;100.00;99741.13;5054644;28;20024;-73
2022/02/14 07:25:48;;;;;;;17.77;2.58;;;;;;;6.61;100.00;99731.53;5053851;28;20033;-74
2022/02/14 07:28:13;;;;;;;15.02;3.83;;;;;;;6.60;100.00;99744.88;5054285;28;20029;-75
2022/02/14 07:30:39;;;;;;;15.48;2.53;;;;;;;6.58;100.00;99744.22;5053258;28;20033;-74
2022/02/14 07:33:04;;;;;;;20.73;3.13;;;;;;;6.55;100.00;99755.88;5054403;28;20044;-72
2022/02/14 07:35:29;;;;;;;18.23;3.08;;;;;;;6.55;100.00;99763.00;5053824;28;20084;-75
2022/02/14 07:37:55;;;;;;;24.88;3.08;;;;;;;6.57;100.00;99761.03;5053072;28;20056;-75
2022/02/14 07:40:20;;;;;;;16.15;2.42;;;;;;;6.59;99.79;99777.59;5053844;28;20446;-72
2022/02/14 07:42:46;;;;;;;12.88;2.72;;;;;;;6.60;99.40;99772.19;5053425;28;20813;-74
2022/02/14 07:45:11;;;;;;;15.50;2.92;;;;;;;6.62;99.18;99780.78;5053818;28;20025;-73
2022/02/14 07:47:37;;;;;;;13.90;2.40;;;;;;;6.64;98.85;99783.28;5053455;28;20029;-74
2022/02/14 07:50:06;;;;;;;15.65;3.10;;;;;;;6.67;98.21;99789.16;5053810;28;20040;-73
2022/02/14 07:52:32;;;;;;;21.92;2.80;;;;;;;6.66;98.23;99791.94;5053346;28;20025;-74
2022/02/14 07:54:58;;;;;;;16.00;2.92;;;;;;;6.68;98.55;99795.25;5053924;28;20033;-73
2022/02/14 07:57:23;;;;;;;14.77;2.70;;;;;;;6.72;98.32;99801.94;5053805;28;20099;-72
2022/02/14 07:59:49;;;;;;;16.83;2.72;;;;;;;6.73;98.08;99800.94;5053033;28;20057;-75
2022/02/14 08:02:14;;;;;;;14.15;3.75;;;;;;;6.74;98.18;99815.84;5054079;28;20071;-73
2022/02/14 08:04:43;;;;;;;22.38;2.92;;;;;;;6.74;98.37;99815.03;5053084;28;20124;-73
2022/02/14 08:07:08;;;;;;;18.83;2.95;;;;;;;6.73;98.57;99808.88;5053755;28;20029;-71
2022/02/14 08:09:34;;;;;;;17.45;4.15;;;;;;;6.75;98.58;99812.25;5053073;28;20060;-75
2022/02/14 08:11:59;;;;;;;15.27;3.15;;;;;;;6.81;98.82;99814.31;5052270;28;20041;-75
2022/02/14 08:14:25;;;;;;;12.18;2.70;;;;;;;6.88;98.42;99810.16;5053356;28;20033;-74
2022/02/14 08:16:50;;;;;;;21.60;6.57;;;;;;;6.96;97.79;99819.19;5052861;28;20040;-73
2022/02/14 08:19:16;;;;;;;12.82;2.45;;;;;;;7.00;97.34;99812.63;5053381;28;20039;-73
2022/02/14 08:21:41;;;;;;;15.13;3.00;;;;;;;7.04;96.55;99808.72;5052868;28;20405;-73
2022/02/14 08:24:07;;;;;;;20.70;2.90;;;;;;;7.09;96.51;99824.19;5053463;28;20397;-74
2022/02/14 08:26:33;;;;;;;10.30;2.47;;;;;;;7.10;96.62;99817.91;5053137;28;20064;-75
2022/02/14 08:28:59;;;;;;;10.07;2.70;;;;;;;7.14;96.55;99825.44;5053000;28;20477;-75
2022/02/14 08:31:24;;;;;;;8.35;2.10;;;;;;;7.26;95.96;99826.09;5053474;28;20041;-73
2022/02/14 08:33:49;;;;;;;6.30;2.03;;;;;;;7.34;95.00;99834.16;5052739;28;20029;-74
2022/02/14 08:36:15;;;;;;;10.18;2.67;;;;;;;7.41;94.82;99834.44;5051903;28;20037;-73
2022/02/14 08:38:41;;;;;;;10.90;2.50;;;;;;;7.45;93.91;99833.16;5052445;28;20057;-72
2022/02/14 08:41:06;;;;;;;8.57;2.70;;;;;;;7.44;94.06;99839.44;5051750;28;20120;-73
2022/02/14 08:43:32;;;;;;;11.63;3.20;;;;;;;7.41;94.25;99832.59;5052386;28;20389;-73
2022/02/14 08:45:58;;;;;;;10.55;2.90;;;;;;;7.47;93.63;99833.03;5052291;28;20370;-73
2022/02/14 08:48:23;;;;;;;8.65;2.85;;;;;;;7.52;93.41;99852.78;5052937;28;20040;-73
2022/02/14 08:50:50;;;;;;;13.77;2.90;;;;;;;7.59;93.53;99853.88;5052490;28;20499;-74
2022/02/14 08:53:17;;;;;;;9.05;2.70;;;;;;;7.64;92.55;99840.19;5052891;28;20037;-74
2022/02/14 08:55:43;;;;;;;5.57;2.38;;;;;;;7.76;91.90;99835.56;5052302;28;20033;-73
2022/02/14 08:58:09;;;;;;;7.22;2.90;;;;;;;7.79;92.01;99848.50;5052846;28;20036;-73
2022/02/14 09:00:34;;;;;;;5.40;2.58;;;;;;;7.80;91.73;99867.91;5052458;28;20441;-73
2022/02/14 09:03:00;;;;;;;10.30;2.90;;;;;;;7.74;91.92;99859.53;5051851;28;20025;-74
2022/02/14 09:05:26;;;;;;;7.15;2.95;;;;;;;7.67;92.81;99868.22;5052859;28;20496;-74
2022/02/14 09:07:52;;;;;;;7.70;3.08;;;;;;;7.59;93.97;99861.00;5051947;28;20033;-73
2022/02/14 09:10:17;;;;;;;11.80;3.45;;;;;;;7.53;94.65;99869.50;5051228;28;20035;-75
2022/02/14 09:12:46;;;;;;;5.90;3.05;;;;;;;7.40;94.44;99859.22;5051886;28;20025;-73
2022/02/14 09:15:12;;;;;;;9.98;3.40;;;;;;;7.40;94.17;99868.00;5052286;28;20029;-74
2022/02/14 09:17:37;;;;;;;11.13;2.97;;;;;;;7.34;94.66;99876.50;5052261;28;20040;-73
2022/02/14 09:20:03;;;;;;;9.35;3.30;;;;;;;7.33;94.78;99879.28;5052104;28;20096;-73
2022/02/14 09:22:29;;;;;;;9.23;2.90;;;;;;;7.44;94.76;99873.84;5052350;28;20033;-73
2022/02/14 09:24:54;;;;;;;10.73;3.13;;;;;;;7.53;93.49;99891.50;5051611;28;20044;-73
2022/02/14 09:27:20;;;;;;;8.75;2.70;;;;;;;7.57;91.99;99887.59;5052309;28;20037;-73
2022/02/14 09:29:45;;;;;;;9.85;3.15;;;;;;;7.56;91.86;99903.63;5051456;28;20037;-73
2022/02/14 09:32:11;;;;;;;10.88;3.05;;;;;;;7.48;92.22;99891.13;5052033;28;20057;-73
2022/02/14 09:34:36;;;;;;;10.73;3.00;;;;;;;7.43;92.23;99908.38;5052240;28;20543;-73
2022/02/14 09:37:02;;;;;;;11.13;3.25;;;;;;;7.29;93.19;99905.19;5051800;28;20033;-73
2022/02/14 09:39:30;;;;;;;9.23;2.97;;;;;;;7.20;93.95;99909.53;5052294;28;20143;-76
2022/02/14 09:42:04;;;;;;;10.20;3.25;;;;;;;7.20;94.36;99917.47;5050000;28;20500;-74
2022/02/14 09:44:29;;;;;;;10.32;3.40;;;;;;;7.24;94.10;99918.03;5052042;28;20044;-75
2022/02/14 09:46:55;;;;;;;10.27;2.75;;;;;;;7.35;91.56;99920.50;5051320;28;20428;-73
2022/02/14 09:49:21;;;;;;;9.35;2.60;;;;;;;7.51;91.17;99930.53;5051918;28;20049;-73
2022/02/14 09:51:50;;;;;;;9.48;2.33;;;;;;;7.65;89.59;99918.66;5051340;28;20516;-73
2022/02/14 09:54:16;;;;;;;10.25;3.42;;;;;;;7.69;88.61;99940.41;5051029;28;20496;-74
2022/02/14 09:56:42;;;;;;;10.45;2.53;;;;;;;7.75;87.86;99951.25;5051918;28;20037;-73
2022/02/14 09:59:10;;;;;;;14.93;2.92;;;;;;;7.80;87.23;99939.41;5051549;28;20377;-73
2022/02/14 10:01:35;;;;;;;11.73;2.40;;;;;;;7.82;86.83;99962.09;5050608;28;20166;-73
2022/02/14 10:04:01;;;;;;;19.42;3.28;;;;;;;7.84;85.67;99946.91;5050797;28;20061;-74
2022/02/14 10:06:28;;;;;;;11.20;2.58;;;;;;;7.95;85.20;99952.03;5051669;28;20095;-74
2022/02/14 10:09:18;;;;;;;22.10;2.88;;;;;;;8.15;84.97;99954.66;5050784;28;20029;-74
2022/02/14 10:12:08;;;;;;;13.15;2.50;;;;;;;8.45;81.51;99969.47;5051074;28;20032;-73
2022/02/14 10:14:34;;;;;;;13.73;2.25;;;;;;;8.61;80.19;99954.72;5051153;28;20025;-73
2022/02/14 10:17:18;;;;;;;10.68;2.22;;;;;;;8.75;79.27;99959.53;5050504;28;20043;-73
2022/02/14 10:20:00;;;;;;;11.75;2.50;;;;;;;8.67;79.31;99953.31;5051217;28;20036;-71
2022/02/14 10:22:26;;;;;;;12.13;2.50;;;;;;;8.50;78.46;99966.38;5051219;28;20530;-73
2022/02/14 10:24:52;;;;;;;12.60;2.47;;;;;;;8.39;78.74;99962.06;5050561;28;20021;-73
2022/02/14 10:27:30;;;;;;;13.73;2.70;;;;;;;8.24;80.58;99971.47;5051054;28;20029;-73
2022/02/14 10:30:09;;;;;;;13.30;2.35;;;;;;;8.29;79.51;99972.69;5050476;28;20025;-71
2022/02/14 10:32:49;;;;;;;10.63;2.08;;;;;;;8.40;78.57;99981.44;5050663;28;20195;-73
2022/02/14 10:35:15;;;;;;;12.95;2.33;;;;;;;8.39;78.91;99982.44;5050504;28;20032;-73
2022/02/14 10:37:43;;;;;;;15.82;2.67;;;;;;;8.31;79.40;99996.41;5050922;28;20033;-74
2022/02/14 10:40:10;;;;;;;15.43;2.90;;;;;;;8.27;80.56;100003.81;5049966;28;20516;-71
2022/02/14 10:42:37;;;;;;;14.20;2.83;;;;;;;8.30;79.64;99994.75;5050577;28;20453;-73
2022/02/14 10:45:08;;;;;;;14.48;2.38;;;;;;;8.44;79.07;99988.19;5049797;28;20111;-74
2022/02/14 10:47:42;;;;;;;13.10;2.57;;;;;;;8.98;77.27;99998.91;5050289;28;20439;-72
2022/02/14 10:50:17;;;;;;;13.05;2.17;;;;;;;9.36;75.00;99999.66;5050495;28;20279;-73
2022/02/14 10:52:49;;;;;;;16.92;2.30;;;;;;;10.27;72.21;100008.28;5050990;28;20135;-73
2022/02/14 10:55:18;;;;;;;8.65;1.90;;;;;;;11.20;66.21;99994.22;5050831;28;20035;-74
2022/02/14 10:57:45;;;;;;;11.77;2.25;;;;;;;11.69;64.12;100025.38;5049340;28;20037;-73
2022/02/14 11:00:14;;;;;;;9.57;1.95;;;;;;;11.98;62.17;100004.41;5050434;28;20037;-74
2022/02/14 11:02:52;;;;;;;14.82;2.28;;;;;;;11.65;61.92;100014.22;5049584;28;20124;-73
2022/02/14 11:05:20;;;;;;;12.32;2.20;;;;;;;11.65;63.32;100009.72;5051146;28;20056;-71
2022/02/14 11:07:46;;;;;;;12.25;1.92;;;;;;;11.87;62.00;100023.41;5054427;28;20032;-72
2022/02/14 11:10:14;;;;;;;11.65;2.15;;;;;;;11.92;61.35;100036.22;5054107;28;20044;-72
2022/02/14 11:12:50;;;;;;;16.80;1.70;;;;;;;11.78;61.83;100019.91;5054530;28;20040;-73
2022/02/14 11:15:16;;;;;;;8.73;1.98;;;;;;;11.19;61.71;100035.97;5053875;28;20066;-74
2022/02/14 11:17:45;;;;;;;12.25;2.53;;;;;;;10.62;64.76;100047.25;5052472;28;20032;-74
2022/02/14 11:20:11;;;;;;;9.02;2.03;;;;;;;10.38;64.59;100058.59;5054052;28;20029;-73
2022/02/14 11:22:40;;;;;;;8.52;1.70;;;;;;;10.10;65.90;100053.38;5053954;28;20033;-74
2022/02/14 11:25:24;;;;;;;10.15;2.08;;;;;;;10.19;65.78;100047.13;5053708;28;20036;-73
2022/02/14 11:28:10;;;;;;;10.23;1.90;;;;;;;10.14;64.96;100052.06;5054212;28;20082;-73
2022/02/14 11:30:36;;;;;;;13.43;2.53;;;;;;;9.86;67.10;100048.69;5054354;28;20033;-72
2022/02/14 11:33:13;;;;;;;11.10;2.42;;;;;;;9.65;67.24;100055.16;5052349;28;20029;-72